Time;durP1;ratioP1;P1;durP2;ratioP2;P2;SDS_P1;SDS_P2;PMS_P1;PMS_P2;Temp;Humidity;BMP_temperature;BMP_pressure;BME280_temperature;BME280_humidity;BME280_pressure;Samples;Min_cycle;Max_cycle;Signal;HPM_P1;HPM_P2
2021/05/21 00:00:58;;;;;;;6.22;0.73;;;11.70;99.90;;;;;;4842632;29;20089;-93
2021/05/21 00:03:24;;;;;;;2.00;0.73;;;11.70;99.90;;;;;;4852512;29;20048;-92
2021/05/21 00:05:49;;;;;;;1.48;0.65;;;11.70;99.90;;;;;;4833569;29;20406;-94
2021/05/21 00:08:15;;;;;;;3.60;0.95;;;11.80;99.90;;;;;;4810123;29;20382;-94
2021/05/21 00:10:41;;;;;;;0.77;0.60;;;11.80;99.90;;;;;;4831519;29;20046;-91
2021/05/21 00:13:07;;;;;;;2.92;1.08;;;11.80;99.90;;;;;;4838609;29;20057;-93
2021/05/21 00:15:33;;;;;;;2.42;1.15;;;11.80;99.90;;;;;;4856415;29;20566;-91
2021/05/21 00:17:59;;;;;;;6.13;0.85;;;11.80;99.90;;;;;;4837950;29;20125;-92
2021/05/21 00:20:24;;;;;;;5.18;1.25;;;11.80;99.90;;;;;;4841687;29;20701;-91
2021/05/21 00:22:51;;;;;;;3.45;0.77;;;11.90;99.90;;;;;;4822907;29;20057;-93
2021/05/21 00:25:17;;;;;;;3.42;1.45;;;11.90;99.90;;;;;;4851042;29;20421;-91
2021/05/21 00:27:42;;;;;;;2.53;0.80;;;12.00;99.90;;;;;;4829086;29;20566;-94
2021/05/21 00:30:09;;;;;;;2.25;1.17;;;12.00;99.90;;;;;;4832057;29;20046;-91
2021/05/21 00:32:35;;;;;;;2.00;0.93;;;12.00;99.90;;;;;;4823890;29;20498;-93
2021/05/21 00:35:00;;;;;;;2.78;0.93;;;11.90;99.90;;;;;;4827199;29;20121;-92
2021/05/21 00:37:26;;;;;;;2.20;0.70;;;12.00;99.90;;;;;;4842484;29;20042;-93
2021/05/21 00:39:52;;;;;;;4.80;0.98;;;12.00;99.90;;;;;;4827264;29;20049;-94
2021/05/21 00:42:18;;;;;;;1.67;1.10;;;12.00;99.90;;;;;;4843259;29;20055;-94
2021/05/21 00:45:02;;;;;;;7.13;1.10;;;12.00;99.90;;;;;;4828534;29;20494;-93
2021/05/21 00:47:28;;;;;;;4.07;0.93;;;12.00;99.90;;;;;;4859295;29;20888;-94
2021/05/21 00:49:54;;;;;;;1.70;1.13;;;11.90;99.90;;;;;;4826746;29;20049;-93
2021/05/21 00:52:22;;;;;;;0.70;0.70;;;11.90;99.90;;;;;;4843110;29;20045;-92
2021/05/21 00:54:48;;;;;;;5.55;1.17;;;11.90;99.90;;;;;;4838072;29;20487;-94
2021/05/21 00:57:14;;;;;;;3.72;1.00;;;11.90;99.90;;;;;;4840141;29;20549;-93
2021/05/21 00:59:40;;;;;;;1.48;1.15;;;11.80;99.90;;;;;;4849197;29;20058;-91
2021/05/21 01:02:07;;;;;;;6.97;0.90;;;11.80;99.90;;;;;;4838416;29;20072;-93
2021/05/21 01:04:35;;;;;;;4.10;1.00;;;11.90;99.90;;;;;;4858958;29;20045;-91
2021/05/21 01:07:02;;;;;;;2.97;0.90;;;11.80;99.90;;;;;;4858527;29;20053;-92
2021/05/21 01:09:28;;;;;;;1.40;0.90;;;11.80;99.90;;;;;;4840951;29;20033;-91
2021/05/21 01:11:53;;;;;;;2.58;0.90;;;11.80;99.90;;;;;;4858642;29;20049;-93
2021/05/21 01:14:19;;;;;;;2.95;0.80;;;11.80;99.90;;;;;;4826284;29;20099;-91
2021/05/21 01:16:45;;;;;;;1.80;0.80;;;11.80;99.90;;;;;;4826948;29;20153;-92
2021/05/21 01:19:11;;;;;;;5.15;1.20;;;11.80;99.90;;;;;;4836518;29;20158;-90
2021/05/21 01:21:37;;;;;;;3.05;0.75;;;11.80;99.90;;;;;;4838155;29;20134;-92
2021/05/21 01:24:05;;;;;;;0.70;0.70;;;11.80;99.90;;;;;;4842730;29;20471;-92
2021/05/21 01:26:31;;;;;;;4.90;1.20;;;11.80;99.90;;;;;;4837646;29;20093;-92
2021/05/21 01:28:57;;;;;;;4.00;1.00;;;11.80;99.90;;;;;;4842066;29;20508;-91
2021/05/21 01:31:24;;;;;;;4.68;0.93;;;11.80;99.90;;;;;;4855109;29;20051;-91
2021/05/21 01:33:51;;;;;;;3.67;1.00;;;11.80;99.90;;;;;;4851182;29;20049;-92
2021/05/21 01:36:18;;;;;;;2.13;1.05;;;11.80;99.90;;;;;;4855771;29;20057;-94
2021/05/21 01:38:56;;;;;;;3.40;0.80;;;11.80;99.90;;;;;;4849540;29;20054;-92
2021/05/21 01:41:22;;;;;;;2.10;0.90;;;11.80;99.90;;;;;;4839139;29;20125;-94
2021/05/21 01:43:48;;;;;;;2.60;0.80;;;11.80;99.90;;;;;;4822335;29;20050;-92
2021/05/21 01:46:14;;;;;;;3.53;0.80;;;11.80;99.90;;;;;;4852859;29;20052;-91
2021/05/21 01:48:40;;;;;;;1.48;0.85;;;11.80;99.90;;;;;;4829485;29;20459;-93
2021/05/21 01:51:06;;;;;;;2.95;1.02;;;11.80;99.90;;;;;;4826516;29;20045;-92
2021/05/21 01:53:35;;;;;;;1.65;0.63;;;11.80;99.90;;;;;;4835602;29;20141;-91
2021/05/21 01:56:00;;;;;;;4.35;0.77;;;11.70;99.90;;;;;;4826413;29;20049;-91
2021/05/21 01:58:26;;;;;;;6.05;1.00;;;11.70;99.90;;;;;;4857894;29;20406;-95
2021/05/21 02:00:52;;;;;;;0.90;0.90;;;11.80;99.90;;;;;;4840534;29;20050;-93
2021/05/21 02:03:18;;;;;;;6.30;1.05;;;11.80;99.90;;;;;;4826699;29;20045;-92
2021/05/21 02:05:44;;;;;;;5.32;0.82;;;11.80;99.90;;;;;;4827225;29;20046;-93
2021/05/21 02:08:10;;;;;;;3.03;0.88;;;11.80;99.90;;;;;;4842343;29;20479;-91
2021/05/21 02:10:36;;;;;;;5.90;1.00;;;11.80;99.90;;;;;;4857031;29;20097;-91
2021/05/21 02:13:02;;;;;;;1.98;0.90;;;11.80;99.90;;;;;;4858022;29;20050;-90
2021/05/21 02:15:27;;;;;;;2.17;0.88;;;11.80;99.90;;;;;;4840636;29;20080;-91
2021/05/21 02:17:53;;;;;;;10.15;1.33;;;11.80;99.90;;;;;;4841042;29;20046;-91
2021/05/21 02:20:19;;;;;;;1.77;0.80;;;11.80;99.90;;;;;;4824950;29;20102;-90
2021/05/21 02:22:45;;;;;;;2.53;1.02;;;11.80;99.90;;;;;;4826266;29;20102;-91
2021/05/21 02:25:12;;;;;;;2.70;0.95;;;11.80;99.90;;;;;;4810490;29;20140;-90
2021/05/21 02:27:38;;;;;;;3.05;1.05;;;11.80;99.90;;;;;;4825244;29;20102;-92
2021/05/21 02:30:06;;;;;;;2.92;1.83;;;11.70;99.90;;;;;;4841340;29;20052;-91
2021/05/21 02:32:32;;;;;;;8.18;1.58;;;11.60;99.90;;;;;;4856752;29;20053;-91
2021/05/21 02:34:58;;;;;;;8.13;1.42;;;11.40;99.90;;;;;;4841415;29;20486;-94
2021/05/21 02:37:24;;;;;;;7.18;1.80;;;11.30;99.90;;;;;;4853071;29;20116;-94
2021/05/21 02:39:50;;;;;;;4.90;1.70;;;11.20;99.90;;;;;;4813844;29;20485;-93
2021/05/21 02:42:16;;;;;;;8.57;2.05;;;11.10;99.90;;;;;;4815309;29;20074;-91
2021/05/21 02:44:41;;;;;;;9.00;2.20;;;11.00;99.90;;;;;;4836248;29;20041;-93
2021/05/21 02:47:07;;;;;;;6.00;1.55;;;10.90;99.90;;;;;;4826389;29;20533;-92
2021/05/21 02:49:34;;;;;;;8.88;2.20;;;10.90;99.90;;;;;;4818839;29;20474;-92
2021/05/21 02:52:00;;;;;;;12.85;2.72;;;10.80;99.90;;;;;;4841499;29;20136;-92
2021/05/21 02:54:26;;;;;;;12.25;2.33;;;10.70;99.90;;;;;;4856480;29;20045;-92
2021/05/21 02:56:52;;;;;;;13.07;2.63;;;10.50;99.90;;;;;;4829193;29;20097;-94
2021/05/21 02:59:18;;;;;;;18.17;3.13;;;10.30;99.90;;;;;;4850641;29;20045;-92
2021/05/21 03:01:44;;;;;;;20.92;2.70;;;10.30;99.90;;;;;;4835209;29;20046;-92
2021/05/21 03:04:10;;;;;;;19.10;3.30;;;10.20;99.90;;;;;;4810610;29;20484;-91
2021/05/21 03:06:36;;;;;;;21.23;3.30;;;10.10;99.90;;;;;;4824965;29;20054;-91
2021/05/21 03:09:02;;;;;;;20.77;3.45;;;10.10;99.90;;;;;;4825241;29;20050;-91
2021/05/21 03:11:38;;;;;;;11.52;2.22;;;10.10;99.90;;;;;;4832240;29;20050;-90
2021/05/21 03:14:04;;;;;;;16.33;2.60;;;10.10;99.90;;;;;;4837277;29;20058;-91
2021/05/21 03:16:30;;;;;;;19.55;3.40;;;10.10;99.90;;;;;;4848172;29;20455;-92
2021/05/21 03:18:56;;;;;;;22.33;3.55;;;10.10;99.90;;;;;;4865936;29;20053;-90
2021/05/21 03:21:22;;;;;;;16.73;2.95;;;10.10;99.90;;;;;;4860216;29;20487;-89
2021/05/21 03:23:48;;;;;;;16.77;2.80;;;10.10;99.90;;;;;;4853861;29;20053;-89
2021/05/21 03:26:14;;;;;;;19.20;3.22;;;10.10;99.90;;;;;;4861001;29;20053;-89
2021/05/21 03:28:41;;;;;;;22.00;3.53;;;10.10;99.90;;;;;;4832240;29;20053;-91
2021/05/21 03:31:08;;;;;;;22.10;3.17;;;10.10;99.90;;;;;;4842758;29;20325;-90
2021/05/21 03:33:34;;;;;;;17.85;3.00;;;10.00;99.90;;;;;;4836035;29;20056;-91
2021/05/21 03:36:01;;;;;;;14.93;4.45;;;10.00;99.90;;;;;;4840991;29;20064;-91
2021/05/21 03:38:27;;;;;;;18.15;2.85;;;10.00;99.90;;;;;;4828218;29;20113;-92
2021/05/21 03:40:55;;;;;;;12.45;2.90;;;10.00;99.90;;;;;;4844541;29;20061;-92
2021/05/21 03:43:21;;;;;;;23.08;2.97;;;9.90;99.90;;;;;;4840832;29;20042;-91
2021/05/21 03:45:47;;;;;;;16.08;2.10;;;9.90;99.90;;;;;;4843528;29;20041;-90
2021/05/21 03:48:15;;;;;;;24.02;3.55;;;9.90;99.90;;;;;;4842904;29;20132;-94
2021/05/21 03:50:40;;;;;;;21.73;3.22;;;9.60;99.90;;;;;;4829017;29;20053;-91
2021/05/21 03:53:06;;;;;;;23.33;2.92;;;9.50;99.90;;;;;;4828837;29;20056;-90
2021/05/21 03:55:32;;;;;;;15.32;2.10;;;9.40;99.90;;;;;;4826709;29;20128;-89
2021/05/21 03:58:00;;;;;;;17.75;2.40;;;9.40;99.90;;;;;;4843910;29;20132;-90
2021/05/21 04:00:26;;;;;;;17.60;2.78;;;9.30;99.90;;;;;;4830312;29;20406;-89
2021/05/21 04:02:53;;;;;;;11.65;1.95;;;9.20;99.90;;;;;;4859682;29;20057;-89
2021/05/21 04:05:20;;;;;;;14.10;2.28;;;9.20;99.90;;;;;;4842932;29;20116;-89
2021/05/21 04:07:49;;;;;;;8.25;1.98;;;9.10;99.90;;;;;;4858926;29;20042;-88
2021/05/21 04:10:16;;;;;;;14.85;2.35;;;9.10;99.90;;;;;;4842260;29;20053;-90
2021/05/21 04:12:44;;;;;;;17.20;2.60;;;9.10;99.90;;;;;;4821077;29;20042;-88
2021/05/21 04:15:10;;;;;;;17.02;2.00;;;9.00;99.90;;;;;;4842211;29;20045;-89
2021/05/21 04:17:36;;;;;;;16.30;2.42;;;9.00;99.90;;;;;;4858468;29;20098;-92
2021/05/21 04:20:03;;;;;;;20.42;3.97;;;9.00;99.90;;;;;;4832893;29;20042;-91
2021/05/21 04:22:31;;;;;;;18.33;2.75;;;9.00;99.90;;;;;;4838083;29;20101;-91
2021/05/21 04:24:56;;;;;;;16.00;3.45;;;9.00;99.90;;;;;;4843459;29;20054;-93
2021/05/21 04:27:23;;;;;;;22.25;3.33;;;9.10;99.90;;;;;;4828914;29;20049;-91
2021/05/21 04:29:49;;;;;;;13.55;2.50;;;9.20;99.90;;;;;;4827623;29;20052;-90
2021/05/21 04:32:15;;;;;;;23.05;2.90;;;9.20;99.90;;;;;;4842084;29;20073;-92
2021/05/21 04:34:42;;;;;;;20.20;3.20;;;9.30;99.90;;;;;;4834710;29;20073;-89
2021/05/21 04:37:08;;;;;;;18.60;2.75;;;9.40;99.90;;;;;;4843242;29;20050;-89
2021/05/21 04:39:34;;;;;;;21.27;3.78;;;9.40;99.90;;;;;;4854630;29;20559;-90
2021/05/21 04:42:00;;;;;;;21.67;3.53;;;9.50;99.90;;;;;;4826998;29;20074;-90
2021/05/21 04:44:26;;;;;;;21.70;2.33;;;9.60;99.90;;;;;;4853871;29;20409;-89
2021/05/21 04:46:51;;;;;;;21.33;3.17;;;9.60;99.90;;;;;;4826610;29;20969;-90
2021/05/21 04:49:32;;;;;;;25.75;4.13;;;9.70;99.90;;;;;;4842442;29;20136;-90
2021/05/21 04:52:00;;;;;;;17.70;3.03;;;9.80;99.90;;;;;;4828510;29;20380;-90
2021/05/21 04:54:26;;;;;;;22.95;3.13;;;9.80;99.90;;;;;;4825304;29;20046;-89
2021/05/21 04:56:52;;;;;;;25.35;3.75;;;9.90;99.90;;;;;;4826356;29;20430;-90
2021/05/21 04:59:19;;;;;;;28.05;3.92;;;10.00;99.90;;;;;;4842410;29;20532;-91
2021/05/21 05:01:45;;;;;;;23.73;2.90;;;10.10;99.90;;;;;;4819969;29;20503;-91
2021/05/21 05:04:11;;;;;;;22.98;3.50;;;10.20;99.90;;;;;;4834075;29;20045;-88
2021/05/21 05:06:37;;;;;;;30.50;3.95;;;10.20;99.90;;;;;;4831857;29;20125;-92
2021/05/21 05:09:04;;;;;;;28.17;3.83;;;10.30;99.90;;;;;;4826467;29;20487;-90
2021/05/21 05:11:29;;;;;;;24.38;3.10;;;10.30;99.90;;;;;;4841671;29;20096;-92
2021/05/21 05:14:00;;;;;;;22.23;3.65;;;10.40;99.90;;;;;;4848637;29;20049;-94
2021/05/21 05:16:26;;;;;;;28.10;3.92;;;10.40;99.90;;;;;;4824185;29;20045;-94
2021/05/21 05:18:54;;;;;;;22.08;4.00;;;10.40;99.90;;;;;;4824635;29;20041;-90
2021/05/21 05:21:20;;;;;;;23.20;3.78;;;10.40;99.90;;;;;;4812116;29;20049;-92
2021/05/21 05:23:47;;;;;;;27.48;4.63;;;10.40;99.90;;;;;;4826738;29;20570;-92
2021/05/21 05:26:13;;;;;;;20.40;3.55;;;10.30;99.90;;;;;;4843764;29;20053;-93
2021/05/21 05:28:44;;;;;;;24.45;4.85;;;10.30;99.90;;;;;;4826352;29;20053;-93
2021/05/21 05:31:10;;;;;;;22.65;4.18;;;10.30;99.90;;;;;;4858553;29;20041;-94
2021/05/21 05:33:36;;;;;;;34.35;4.47;;;10.30;99.90;;;;;;4841541;29;20052;-93
2021/05/21 05:36:03;;;;;;;24.23;4.05;;;10.40;99.90;;;;;;4825540;29;20162;-94
2021/05/21 05:38:30;;;;;;;24.40;3.78;;;10.40;99.90;;;;;;4826828;29;20379;-92
2021/05/21 05:40:57;;;;;;;23.17;3.97;;;10.50;99.90;;;;;;4840904;29;20140;-91
2021/05/21 05:43:23;;;;;;;21.67;3.90;;;10.50;99.90;;;;;;4839193;29;20048;-90
2021/05/21 05:45:49;;;;;;;24.65;3.55;;;10.60;99.90;;;;;;4817774;29;20050;-91
2021/05/21 05:48:18;;;;;;;22.38;3.58;;;10.60;99.90;;;;;;4858397;29;20037;-90
2021/05/21 05:50:45;;;;;;;33.40;3.85;;;10.70;99.90;;;;;;4839175;29;20077;-91
2021/05/21 05:53:11;;;;;;;30.08;4.75;;;10.80;99.90;;;;;;4842548;29;20052;-90
2021/05/21 05:55:39;;;;;;;23.08;3.83;;;10.80;99.90;;;;;;4826680;29;20045;-90
2021/05/21 05:58:05;;;;;;;19.65;3.30;;;10.90;99.90;;;;;;4827036;29;20494;-90
2021/05/21 06:00:30;;;;;;;22.45;3.22;;;11.00;99.90;;;;;;4817096;29;20080;-93
2021/05/21 06:03:03;;;;;;;30.70;4.32;;;11.30;99.90;;;;;;4841431;29;20547;-92
2021/05/21 06:05:28;;;;;;;24.52;3.85;;;11.40;99.90;;;;;;4841473;29;20041;-92
2021/05/21 06:07:54;;;;;;;25.88;3.90;;;11.60;99.90;;;;;;4830962;29;20482;-92
2021/05/21 06:10:20;;;;;;;23.75;3.60;;;11.60;99.90;;;;;;4826428;29;20132;-92
2021/05/21 06:12:47;;;;;;;20.33;3.58;;;11.70;99.90;;;;;;4825548;29;20398;-91
2021/05/21 06:15:13;;;;;;;24.60;3.80;;;11.70;99.90;;;;;;4841294;29;20101;-93
2021/05/21 06:17:39;;;;;;;22.60;3.20;;;11.80;99.90;;;;;;4843871;29;20105;-91
2021/05/21 06:20:06;;;;;;;24.30;4.18;;;11.80;99.90;;;;;;4857232;29;20243;-92
2021/05/21 06:22:32;;;;;;;24.83;4.65;;;11.80;99.90;;;;;;4824411;29;20050;-91
2021/05/21 06:25:05;;;;;;;34.03;4.68;;;11.90;99.90;;;;;;4840622;29;20055;-93
2021/05/21 06:27:31;;;;;;;25.65;3.88;;;12.00;99.90;;;;;;4839980;29;20076;-92
2021/05/21 06:29:58;;;;;;;28.98;4.50;;;12.10;99.90;;;;;;4840787;29;20139;-93
2021/05/21 06:32:24;;;;;;;24.73;4.75;;;12.10;99.90;;;;;;4857846;29;20140;-94
2021/05/21 06:34:49;;;;;;;19.85;3.03;;;12.20;99.90;;;;;;4822530;29;20546;-92
2021/05/21 06:37:16;;;;;;;23.10;4.32;;;12.30;99.90;;;;;;4834009;29;20056;-92
2021/05/21 06:39:42;;;;;;;21.13;3.65;;;12.30;99.90;;;;;;4841620;29;20820;-94
2021/05/21 06:42:07;;;;;;;26.77;5.03;;;12.30;99.90;;;;;;4825374;29;20053;-95
2021/05/21 06:44:33;;;;;;;24.25;3.60;;;12.40;99.90;;;;;;4841001;29;20467;-94
2021/05/21 06:46:59;;;;;;;22.02;3.97;;;12.40;99.90;;;;;;4825402;29;20129;-94
2021/05/21 06:49:25;;;;;;;29.27;4.00;;;12.40;99.90;;;;;;4841295;29;20046;-92
2021/05/21 06:51:51;;;;;;;26.73;4.72;;;12.50;99.90;;;;;;4808603;29;20107;-92
2021/05/21 06:54:18;;;;;;;20.73;3.63;;;12.50;99.90;;;;;;4837993;29;20218;-96
2021/05/21 06:56:44;;;;;;;26.98;3.90;;;12.60;99.90;;;;;;4827871;29;20140;-94
2021/05/21 06:59:10;;;;;;;19.98;3.75;;;12.60;99.90;;;;;;4842508;29;20041;-95
2021/05/21 07:01:36;;;;;;;21.85;3.78;;;12.60;99.90;;;;;;4861129;29;20099;-95
2021/05/21 07:04:02;;;;;;;32.58;4.50;;;12.70;99.90;;;;;;4828183;29;20071;-95
2021/05/21 07:06:30;;;;;;;26.65;4.60;;;12.80;99.90;;;;;;4810574;29;20037;-95
2021/05/21 07:08:56;;;;;;;25.77;4.03;;;13.00;99.90;;;;;;4855427;29;20046;-95
2021/05/21 07:11:21;;;;;;;24.83;4.07;;;13.10;99.90;;;;;;4796963;29;20057;-94
2021/05/21 07:13:47;;;;;;;22.20;4.20;;;13.20;99.90;;;;;;4839587;29;20087;-95
2021/05/21 07:16:13;;;;;;;20.65;4.15;;;13.20;99.90;;;;;;4829712;29;20053;-94
2021/05/21 07:18:39;;;;;;;21.50;4.15;;;13.20;99.90;;;;;;4843620;29;20050;-91
2021/05/21 07:21:05;;;;;;;21.67;3.63;;;13.20;99.90;;;;;;4835630;29;20478;-91
2021/05/21 07:23:31;;;;;;;28.98;4.20;;;13.30;99.90;;;;;;4814545;29;20061;-93
2021/05/21 07:25:56;;;;;;;19.67;4.18;;;13.40;99.90;;;;;;4828578;29;20494;-96
2021/05/21 07:28:24;;;;;;;19.48;3.80;;;13.40;99.90;;;;;;4834225;29;20045;-91
2021/05/21 07:30:51;;;;;;;23.40;3.95;;;13.40;99.90;;;;;;4842865;29;20042;-90
2021/05/21 07:33:17;;;;;;;19.20;4.63;;;13.40;99.90;;;;;;4843036;29;20050;-91
2021/05/21 07:35:43;;;;;;;16.77;3.65;;;13.40;99.90;;;;;;4826976;29;20459;-91
2021/05/21 07:38:10;;;;;;;23.40;4.07;;;13.40;99.90;;;;;;4842187;29;20042;-93
2021/05/21 07:40:35;;;;;;;22.50;4.57;;;13.40;99.90;;;;;;4843271;29;20119;-93
2021/05/21 07:43:02;;;;;;;27.48;4.07;;;13.40;99.90;;;;;;4841359;29;20049;-92
2021/05/21 07:45:27;;;;;;;17.10;3.30;;;13.50;99.90;;;;;;4843743;29;20061;-92
2021/05/21 07:47:53;;;;;;;23.90;4.68;;;13.50;99.90;;;;;;4842959;29;20115;-90
2021/05/21 07:50:19;;;;;;;22.88;3.97;;;13.50;99.90;;;;;;4827411;29;20056;-91
2021/05/21 07:52:45;;;;;;;24.15;3.97;;;13.60;99.90;;;;;;4843147;29;20097;-91
2021/05/21 07:55:12;;;;;;;20.40;3.60;;;13.60;99.90;;;;;;4827006;29;20517;-89
2021/05/21 07:57:37;;;;;;;20.25;3.58;;;13.60;99.90;;;;;;4824521;29;20080;-91
2021/05/21 08:00:05;;;;;;;20.52;4.00;;;13.60;99.90;;;;;;4856659;29;20479;-90
2021/05/21 08:02:31;;;;;;;23.05;3.78;;;13.60;99.90;;;;;;4859510;29;20467;-91
2021/05/21 08:04:57;;;;;;;20.17;3.55;;;13.60;99.90;;;;;;4859027;29;20061;-89
2021/05/21 08:07:22;;;;;;;21.85;3.97;;;13.60;99.90;;;;;;4840927;29;20539;-90
2021/05/21 08:09:50;;;;;;;20.20;3.75;;;13.70;99.90;;;;;;4827352;29;20045;-88
2021/05/21 08:12:17;;;;;;;20.52;3.35;;;13.80;99.90;;;;;;4858774;29;20116;-89
2021/05/21 08:14:47;;;;;;;22.25;4.40;;;13.80;99.90;;;;;;4859533;29;20078;-89
2021/05/21 08:17:14;;;;;;;21.90;3.63;;;13.90;99.90;;;;;;4837966;29;20054;-87
2021/05/21 08:19:39;;;;;;;19.10;3.13;;;14.00;99.90;;;;;;4842770;29;20048;-88
2021/05/21 08:22:05;;;;;;;26.33;4.20;;;14.10;99.90;;;;;;4842206;29;20049;-88
2021/05/21 08:24:31;;;;;;;19.30;3.75;;;14.30;99.90;;;;;;4825977;29;20102;-89
2021/05/21 08:26:57;;;;;;;18.63;3.80;;;14.40;99.90;;;;;;4841170;29;20506;-88
2021/05/21 08:29:23;;;;;;;22.10;3.47;;;14.40;99.90;;;;;;4850941;29;20457;-88
2021/05/21 08:31:50;;;;;;;20.42;3.72;;;14.30;99.90;;;;;;4842486;29;20041;-88
2021/05/21 08:34:16;;;;;;;20.95;3.92;;;14.30;99.90;;;;;;4841736;29;20052;-89
2021/05/21 08:36:41;;;;;;;25.60;3.92;;;14.20;99.90;;;;;;4826809;29;20498;-89
2021/05/21 08:39:07;;;;;;;22.38;3.60;;;14.10;99.90;;;;;;4857979;29;20056;-90
2021/05/21 08:41:39;;;;;;;21.80;4.20;;;14.00;99.90;;;;;;4842116;29;20109;-88
2021/05/21 08:44:05;;;;;;;15.90;3.25;;;13.70;99.90;;;;;;4841836;29;20513;-90
2021/05/21 08:46:32;;;;;;;19.85;3.97;;;13.50;99.90;;;;;;4850026;29;20479;-88
2021/05/21 08:49:02;;;;;;;23.23;3.67;;;13.30;99.90;;;;;;4827181;29;20094;-89
2021/05/21 08:51:29;;;;;;;25.75;5.47;;;13.10;99.90;;;;;;4841680;29;20050;-88
2021/05/21 08:53:57;;;;;;;28.85;3.90;;;13.10;99.90;;;;;;4842355;29;20410;-89
2021/05/21 08:56:23;;;;;;;20.58;3.75;;;13.20;99.90;;;;;;4841548;29;20045;-89
2021/05/21 08:58:49;;;;;;;15.07;3.30;;;13.30;99.90;;;;;;4809719;29;20518;-89
2021/05/21 09:01:15;;;;;;;19.25;4.20;;;13.50;99.90;;;;;;4838763;29;20069;-89
2021/05/21 09:03:45;;;;;;;22.60;3.58;;;13.70;99.90;;;;;;4841895;29;20042;-90
2021/05/21 09:06:18;;;;;;;22.02;4.32;;;13.80;99.90;;;;;;4840965;29;20038;-90
2021/05/21 09:08:50;;;;;;;21.55;3.60;;;13.90;99.90;;;;;;4840725;29;20050;-88
2021/05/21 09:11:31;;;;;;;17.02;2.88;;;14.10;99.90;;;;;;4814194;29;20053;-89
2021/05/21 09:14:07;;;;;;;19.98;3.88;;;14.20;99.90;;;;;;4856676;29;20053;-89
2021/05/21 09:16:40;;;;;;;17.25;3.40;;;14.40;99.90;;;;;;4858013;29;20059;-89
2021/05/21 09:19:17;;;;;;;24.55;3.83;;;14.70;99.90;;;;;;4856621;29;20120;-89
2021/05/21 09:21:54;;;;;;;20.75;3.47;;;14.80;99.90;;;;;;4841938;29;20041;-88
2021/05/21 09:24:21;;;;;;;22.15;3.60;;;14.90;99.90;;;;;;4840824;29;20485;-89
2021/05/21 09:26:49;;;;;;;13.80;3.15;;;14.90;99.90;;;;;;4842055;29;20057;-88
2021/05/21 09:29:19;;;;;;;19.83;3.45;;;14.80;99.90;;;;;;4840435;29;20058;-90
2021/05/21 09:31:47;;;;;;;18.65;3.10;;;14.90;99.90;;;;;;4840859;29;20049;-89
2021/05/21 09:34:23;;;;;;;18.30;3.88;;;15.00;99.90;;;;;;4857376;29;20046;-89
2021/05/21 09:36:52;;;;;;;14.60;2.67;;;15.00;99.90;;;;;;4827543;29;20064;-89
2021/05/21 09:39:19;;;;;;;21.90;4.45;;;15.10;99.90;;;;;;4857146;29;20057;-87
2021/05/21 09:41:57;;;;;;;18.65;3.75;;;15.10;99.90;;;;;;4856354;29;20128;-89
2021/05/21 09:44:25;;;;;;;17.92;3.53;;;15.40;99.90;;;;;;4854858;29;20061;-90
2021/05/21 09:46:52;;;;;;;11.80;3.15;;;15.40;99.90;;;;;;4854170;29;20097;-91
2021/05/21 09:49:34;;;;;;;17.05;3.60;;;15.40;99.90;;;;;;4854528;29;20041;-90
2021/05/21 09:52:06;;;;;;;15.38;3.65;;;15.20;99.90;;;;;;4840885;29;20041;-90
2021/05/21 09:54:52;;;;;;;13.00;3.30;;;15.10;99.90;;;;;;4856903;29;20148;-91
2021/05/21 09:57:34;;;;;;;17.88;3.60;;;15.00;99.90;;;;;;4840313;29;20116;-89
2021/05/21 10:00:01;;;;;;;18.83;3.33;;;15.00;99.90;;;;;;4840091;29;20486;-91
2021/05/21 10:02:29;;;;;;;14.25;3.20;;;14.90;99.90;;;;;;4839601;29;20041;-91
2021/05/21 10:04:58;;;;;;;21.15;3.88;;;14.90;99.90;;;;;;4822760;29;20072;-89
2021/05/21 10:07:24;;;;;;;16.75;3.15;;;15.00;99.90;;;;;;4825301;29;20608;-92
2021/05/21 10:09:51;;;;;;;15.55;3.33;;;15.00;99.90;;;;;;4841211;29;20042;-92
2021/05/21 10:12:17;;;;;;;18.27;3.10;;;14.70;99.90;;;;;;4843208;29;20041;-92
2021/05/21 10:14:51;;;;;;;17.63;2.55;;;14.70;99.90;;;;;;4834331;29;20459;-91
2021/05/21 10:17:23;;;;;;;16.45;3.40;;;14.90;99.90;;;;;;4834877;29;20042;-91
2021/05/21 10:19:51;;;;;;;14.00;3.00;;;15.10;99.90;;;;;;4846859;29;20122;-91
2021/05/21 10:22:31;;;;;;;17.10;3.28;;;15.30;99.90;;;;;;4832211;29;20057;-92
2021/05/21 10:25:28;;;;;;;15.07;2.30;;;15.40;99.90;;;;;;4839922;29;20116;-93
2021/05/21 10:27:56;;;;;;;13.40;2.92;;;15.70;99.90;;;;;;4832300;29;20065;-92
2021/05/21 10:30:27;;;;;;;18.30;3.28;;;15.90;99.90;;;;;;4818081;29;20045;-92
2021/05/21 10:33:20;;;;;;;15.50;2.80;;;16.10;99.90;;;;;;4825961;29;20049;-91
2021/05/21 10:35:48;;;;;;;14.15;3.13;;;16.30;99.90;;;;;;4851437;29;20067;-90
2021/05/21 10:38:24;;;;;;;13.45;2.90;;;16.40;99.90;;;;;;4856001;29;20045;-91
2021/05/21 10:41:15;;;;;;;16.40;3.45;;;16.50;99.90;;;;;;4857085;29;20132;-91
2021/05/21 10:43:55;;;;;;;22.65;3.28;;;16.40;99.90;;;;;;4855663;29;20046;-95
2021/05/21 10:46:22;;;;;;;9.55;2.40;;;15.40;99.90;;;;;;4826979;29;20064;-90
2021/05/21 10:48:58;;;;;;;13.05;2.45;;;14.50;99.90;;;;;;4857008;29;20633;-91
2021/05/21 10:51:26;;;;;;;8.57;2.13;;;14.20;99.90;;;;;;4839980;29;20049;-91
2021/05/21 10:54:23;;;;;;;8.55;2.03;;;14.10;99.90;;;;;;4857189;29;20057;-90
2021/05/21 10:56:49;;;;;;;12.57;2.55;;;14.00;99.90;;;;;;4843200;29;20077;-91
2021/05/21 10:59:15;;;;;;;11.60;2.17;;;14.00;99.90;;;;;;4840925;29;20080;-91
2021/05/21 11:01:44;;;;;;;10.63;2.08;;;14.00;99.90;;;;;;4833051;29;20041;-91
2021/05/21 11:04:18;;;;;;;11.82;2.97;;;14.00;99.90;;;;;;4839986;29;20065;-92
2021/05/21 11:06:53;;;;;;;10.38;2.75;;;14.10;99.90;;;;;;4825171;29;20043;-91
2021/05/21 11:09:25;;;;;;;8.57;2.00;;;14.20;99.90;;;;;;4838882;29;20490;-90
2021/05/21 11:12:03;;;;;;;10.75;2.10;;;14.20;99.90;;;;;;4840575;29;20037;-92
2021/05/21 11:14:30;;;;;;;12.18;3.03;;;14.30;99.90;;;;;;4856282;29;20049;-90
2021/05/21 11:16:59;;;;;;;10.23;2.00;;;14.40;99.90;;;;;;4839974;29;20060;-89
2021/05/21 11:19:31;;;;;;;9.32;2.22;;;14.60;99.90;;;;;;4865869;29;20101;-93
2021/05/21 11:22:07;;;;;;;9.45;2.33;;;14.80;99.90;;;;;;4838739;29;20065;-93
2021/05/21 11:24:43;;;;;;;11.20;2.33;;;14.80;99.90;;;;;;4838652;29;20116;-93
2021/05/21 11:27:13;;;;;;;13.90;3.00;;;14.90;99.90;;;;;;4841154;29;20053;-93
2021/05/21 11:29:46;;;;;;;9.30;2.03;;;15.10;99.90;;;;;;4799584;29;20729;-94
2021/05/21 11:32:12;;;;;;;12.90;2.05;;;15.20;99.90;;;;;;4833301;29;20119;-95
2021/05/21 11:34:39;;;;;;;8.82;2.05;;;15.30;99.90;;;;;;4839938;29;20076;-95
2021/05/21 11:37:05;;;;;;;8.75;2.35;;;15.20;99.90;;;;;;4841168;29;20586;-93
2021/05/21 11:39:37;;;;;;;12.38;1.90;;;15.00;99.90;;;;;;4848709;29;20049;-94
2021/05/21 11:42:07;;;;;;;9.10;2.05;;;14.70;99.90;;;;;;4862311;29;20072;-96
2021/05/21 11:44:34;;;;;;;9.18;1.88;;;14.40;99.90;;;;;;4861961;29;20048;-96
2021/05/21 11:47:07;;;;;;;14.13;2.42;;;14.20;99.90;;;;;;4846594;29;20053;-94
2021/05/21 11:49:34;;;;;;;14.00;2.83;;;14.00;99.90;;;;;;4834102;29;20053;-96
2021/05/21 11:52:06;;;;;;;12.88;2.50;;;14.00;99.90;;;;;;4836295;29;20045;-96
2021/05/21 11:54:40;;;;;;;7.32;2.33;;;14.00;99.90;;;;;;4853917;29;20110;-96
2021/05/21 11:57:07;;;;;;;12.77;2.60;;;14.10;99.90;;;;;;4846461;29;20483;-94
2021/05/21 11:59:33;;;;;;;12.70;3.20;;;14.20;99.90;;;;;;4846364;29;20502;-92
2021/05/21 12:02:04;;;;;;;19.38;3.35;;;14.50;99.90;;;;;;4855401;29;20076;-96
2021/05/21 12:04:33;;;;;;;12.43;2.58;;;14.90;99.90;;;;;;4846696;29;20050;-94
2021/05/21 12:07:05;;;;;;;7.35;2.30;;;15.20;99.90;;;;;;4860944;29;20073;-95
2021/05/21 12:09:32;;;;;;;14.48;2.78;;;15.40;99.90;;;;;;4831669;29;20133;-95
2021/05/21 12:11:59;;;;;;;12.55;2.95;;;15.70;99.90;;;;;;4830860;29;20065;-94
2021/05/21 12:14:29;;;;;;;21.98;3.67;;;15.70;99.90;;;;;;4842905;29;20062;-94
2021/05/21 12:16:57;;;;;;;15.55;3.67;;;15.50;99.90;;;;;;4867397;29;20105;-95
2021/05/21 12:19:27;;;;;;;11.68;2.42;;;15.20;99.90;;;;;;4863698;29;20045;-93
2021/05/21 12:21:58;;;;;;;10.85;2.40;;;13.90;99.90;;;;;;4862902;29;20414;-94
2021/05/21 12:24:44;;;;;;;9.52;1.98;;;13.00;99.90;;;;;;4822204;29;20109;-95
2021/05/21 12:27:13;;;;;;;14.35;2.25;;;12.70;99.90;;;;;;4856679;29;20109;-93
2021/05/21 12:29:39;;;;;;;9.43;2.15;;;12.80;99.90;;;;;;4835770;29;20049;-94
2021/05/21 12:32:08;;;;;;;9.40;2.65;;;13.00;99.90;;;;;;4835832;29;20094;-90
2021/05/21 12:34:34;;;;;;;9.75;2.50;;;13.30;99.90;;;;;;4859725;29;20646;-94
2021/05/21 12:37:04;;;;;;;8.52;2.47;;;13.70;99.90;;;;;;4824017;29;20093;-91
2021/05/21 12:39:39;;;;;;;7.32;2.45;;;14.00;99.90;;;;;;4827346;29;20491;-93
2021/05/21 12:42:05;;;;;;;10.52;2.28;;;14.30;99.90;;;;;;4843266;29;20667;-90
2021/05/21 12:44:32;;;;;;;10.90;3.10;;;14.40;99.90;;;;;;4858970;29;20050;-92